createdAt,value
2022-12-16T00:00:11.185Z,99445.07
2022-12-16T00:02:43.855Z,99438.08
2022-12-16T00:05:16.566Z,99433.84
2022-12-16T00:07:49.601Z,99437.30
2022-12-16T00:10:21.712Z,99445.78
2022-12-16T00:12:53.761Z,99432.91
2022-12-16T00:15:27.090Z,99418.30
2022-12-16T00:17:59.178Z,99425.19
2022-12-16T00:20:31.092Z,99424.40
2022-12-16T00:23:03.000Z,99419.98
2022-12-16T00:25:35.063Z,99411.38
2022-12-16T00:28:06.921Z,99413.98
2022-12-16T00:30:39.535Z,99407.99
2022-12-16T00:33:11.583Z,99401.97
2022-12-16T00:35:46.004Z,99407.11
2022-12-16T00:38:17.650Z,99413.95
2022-12-16T00:40:49.971Z,99407.91
2022-12-16T00:43:23.692Z,99399.23
2022-12-16T00:45:55.806Z,99392.36
2022-12-16T00:48:27.771Z,99392.40
2022-12-16T00:50:59.793Z,99397.53
2022-12-16T00:53:32.278Z,99398.33
2022-12-16T00:56:10.150Z,99398.40
2022-12-16T00:58:42.831Z,99397.48
2022-12-16T01:01:15.088Z,99400.05
2022-12-16T01:03:47.139Z,99401.75
2022-12-16T01:06:19.544Z,99404.34
2022-12-16T01:08:52.120Z,99408.59
2022-12-16T01:11:24.007Z,99400.05
2022-12-16T01:13:55.919Z,99400.88
2022-12-16T01:16:28.114Z,99407.72
2022-12-16T01:19:00.136Z,99398.28
2022-12-16T01:21:32.680Z,99418.78
2022-12-16T01:24:04.598Z,99405.83
2022-12-16T01:26:36.918Z,99407.63
2022-12-16T01:29:08.760Z,99417.95
2022-12-16T01:31:40.643Z,99411.91
2022-12-16T01:34:12.639Z,99402.44
2022-12-16T01:36:45.953Z,99401.59
2022-12-16T01:39:17.950Z,99412.75
2022-12-16T01:41:50.034Z,99401.45
2022-12-16T01:44:25.563Z,99403.16
2022-12-16T01:47:03.941Z,99410.84
2022-12-16T01:49:42.957Z,99405.74
2022-12-16T01:52:27.075Z,99405.74
2022-12-16T01:57:57.315Z,99409.86
2022-12-16T02:00:29.617Z,99416.69
2022-12-16T02:03:02.832Z,99416.80
2022-12-16T02:05:38.095Z,99411.69
2022-12-16T02:08:18.661Z,99415.10
2022-12-16T02:14:03.924Z,99418.48
2022-12-16T02:16:57.430Z,99414.11
2022-12-16T02:19:43.944Z,99414.89
2022-12-16T02:22:30.816Z,99419.29
2022-12-16T02:25:05.764Z,99431.22
2022-12-16T02:30:58.511Z,99426.95
2022-12-16T02:33:39.132Z,99422.64
2022-12-16T02:36:14.167Z,99426.12
2022-12-16T02:39:04.273Z,99427.03
2022-12-16T02:41:55.153Z,99415.80
2022-12-16T02:47:19.395Z,99428.59
2022-12-16T02:49:53.809Z,99423.34
2022-12-16T02:52:31.338Z,99424.34
2022-12-16T02:55:06.551Z,99426.92
2022-12-16T02:58:03.828Z,99426.95
2022-12-16T03:03:48.174Z,99429.45
2022-12-16T03:06:22.097Z,99427.71
2022-12-16T03:08:57.247Z,99433.78
2022-12-16T03:11:31.494Z,99426.83
2022-12-16T03:14:04.378Z,99434.55
2022-12-16T03:16:36.188Z,99441.12
2022-12-16T03:19:21.026Z,99430.17
2022-12-16T03:21:56.229Z,99449.98
2022-12-16T03:24:29.126Z,99443.89
2022-12-16T03:27:10.100Z,99439.66
2022-12-16T03:29:57.030Z,99441.38
2022-12-16T03:32:38.007Z,99452.36
2022-12-16T03:38:13.456Z,99453.27
2022-12-16T03:40:46.118Z,99461.05
2022-12-16T03:43:19.261Z,99462.72
2022-12-16T03:45:54.195Z,99459.98
2022-12-16T03:48:27.719Z,99464.39
2022-12-16T03:53:49.329Z,99473.93
2022-12-16T03:56:21.297Z,99477.28
2022-12-16T03:58:53.697Z,99468.69
2022-12-16T04:01:26.048Z,99483.37
2022-12-16T04:03:58.757Z,99491.15
2022-12-16T04:06:31.335Z,99489.48
2022-12-16T04:12:10.739Z,99495.36
2022-12-16T04:15:01.130Z,99510.89
2022-12-16T04:17:51.560Z,99512.64
2022-12-16T04:20:43.755Z,99522.98
2022-12-16T04:23:34.773Z,99532.38
2022-12-16T04:26:25.766Z,99530.59
2022-12-16T04:28:57.960Z,99530.57
2022-12-16T04:31:30.190Z,99540.09
2022-12-16T04:34:20.078Z,99546.96
2022-12-16T04:37:10.400Z,99552.94
2022-12-16T04:40:00.623Z,99549.50
2022-12-16T04:45:59.517Z,99565.82
2022-12-16T04:48:49.362Z,99570.08
2022-12-16T04:51:39.696Z,99572.56
2022-12-16T04:54:29.604Z,99570.02
2022-12-16T04:57:19.492Z,99577.80
2022-12-16T05:00:10.390Z,99582.87
2022-12-16T05:03:01.247Z,99594.95
2022-12-16T05:05:50.915Z,99595.88
2022-12-16T05:08:40.948Z,99595.84
2022-12-16T05:11:31.725Z,99602.66
2022-12-16T05:14:21.767Z,99608.72
2022-12-16T05:17:12.388Z,99619.50
2022-12-16T05:20:02.690Z,99618.96
2022-12-16T05:22:52.751Z,99622.34
2022-12-16T05:25:42.468Z,99621.35
2022-12-16T05:28:32.199Z,99629.36
2022-12-16T05:34:30.011Z,99646.62
2022-12-16T05:37:19.744Z,99651.00
2022-12-16T05:40:09.905Z,99649.18
2022-12-16T05:43:01.960Z,99666.45
2022-12-16T05:45:52.265Z,99664.59
2022-12-16T05:48:47.611Z,99672.22
2022-12-16T05:51:34.607Z,99684.39
2022-12-16T05:54:24.315Z,99693.83
2022-12-16T05:57:14.010Z,99692.09
2022-12-16T06:00:04.347Z,99697.38
2022-12-16T06:02:55.739Z,99700.79
2022-12-16T06:05:46.650Z,99713.47
2022-12-16T06:08:36.578Z,99727.49
2022-12-16T06:11:27.550Z,99736.16
2022-12-16T06:14:17.663Z,99742.05
2022-12-16T06:17:07.210Z,99748.95
2022-12-16T06:19:56.819Z,99761.99
2022-12-16T06:22:46.735Z,99753.30
2022-12-16T06:25:36.945Z,99771.50
2022-12-16T06:28:26.638Z,99771.34
2022-12-16T06:31:17.088Z,99783.56
2022-12-16T06:34:08.864Z,99792.20
2022-12-16T06:36:59.942Z,99804.94
2022-12-16T06:39:52.895Z,99812.86
2022-12-16T06:42:41.554Z,99824.91
2022-12-16T06:45:34.903Z,99826.72
2022-12-16T06:48:23.419Z,99831.00
2022-12-16T06:51:13.917Z,99847.39
2022-12-16T06:54:04.738Z,99863.79
2022-12-16T06:56:54.838Z,99863.64
2022-12-16T06:59:44.445Z,99863.75
2022-12-16T07:02:34.779Z,99874.78
2022-12-16T07:05:25.958Z,99892.92
2022-12-16T07:08:15.997Z,99893.05
2022-12-16T07:11:16.188Z,99889.70
2022-12-16T07:13:57.867Z,99890.59
2022-12-16T07:16:47.637Z,99906.89
2022-12-16T07:19:38.156Z,99924.98
2022-12-16T07:22:28.150Z,99924.20
2022-12-16T07:25:17.789Z,99924.21
2022-12-16T07:28:12.299Z,99938.01
2022-12-16T07:31:01.136Z,99950.89
2022-12-16T07:33:51.725Z,99950.03
2022-12-16T07:36:42.568Z,99964.59
2022-12-16T07:39:32.744Z,99980.94
2022-12-16T07:42:22.828Z,99980.06
2022-12-16T07:45:13.355Z,99986.98
2022-12-16T07:48:10.248Z,99991.33
2022-12-16T07:51:00.547Z,99997.32
2022-12-16T07:53:50.860Z,100000.80
2022-12-16T07:56:40.922Z,100015.44
2022-12-16T07:59:32.112Z,100013.60
2022-12-16T08:02:21.964Z,100017.14
2022-12-16T08:05:12.130Z,100027.46
2022-12-16T08:08:02.828Z,100036.91
2022-12-16T08:10:52.567Z,100043.73
2022-12-16T08:13:43.952Z,100041.24
2022-12-16T08:16:33.793Z,100053.25
2022-12-16T08:19:23.999Z,100044.64
2022-12-16T08:22:13.425Z,100053.17
2022-12-16T08:25:03.520Z,100044.68
2022-12-16T08:27:52.372Z,100048.14
2022-12-16T08:30:43.113Z,100050.72
2022-12-16T08:33:33.459Z,100054.95
2022-12-16T08:36:23.917Z,100074.63
2022-12-16T08:39:14.762Z,100073.05
2022-12-16T08:42:05.865Z,100068.77
2022-12-16T08:44:55.956Z,100086.00
2022-12-16T08:47:46.523Z,100089.48
2022-12-16T08:50:36.933Z,100089.45
2022-12-16T08:53:27.205Z,100110.95
2022-12-16T08:56:17.117Z,100110.06
2022-12-16T08:59:06.964Z,100113.56
2022-12-16T09:01:57.547Z,100123.88
2022-12-16T09:04:47.553Z,100129.86
2022-12-16T09:07:38.170Z,100128.13
2022-12-16T09:10:28.267Z,100128.95
2022-12-16T09:13:29.895Z,100134.94
2022-12-16T09:16:20.979Z,100141.05
2022-12-16T09:19:11.062Z,100152.19
2022-12-16T09:22:01.502Z,100160.80
2022-12-16T09:24:51.420Z,100163.38
2022-12-16T09:27:41.278Z,100167.62
2022-12-16T09:30:31.302Z,100167.68
2022-12-16T09:33:21.789Z,100166.84
2022-12-16T09:36:12.029Z,100174.59
2022-12-16T09:38:48.933Z,100191.77
2022-12-16T09:41:53.167Z,100182.31
2022-12-16T09:45:09.090Z,100184.91
2022-12-16T09:48:08.118Z,100194.36
2022-12-16T09:51:03.310Z,100194.38
2022-12-16T09:53:55.164Z,100205.52
2022-12-16T09:56:48.389Z,100204.66
2022-12-16T09:59:47.041Z,100208.97
2022-12-16T10:02:39.073Z,100221.83
2022-12-16T10:05:17.939Z,100217.55
2022-12-16T10:08:18.815Z,100217.53
2022-12-16T10:11:28.770Z,100225.27
2022-12-16T10:14:30.242Z,100225.26
2022-12-16T10:17:34.646Z,100235.56
2022-12-16T10:20:36.079Z,100234.70
2022-12-16T10:23:32.004Z,100240.72
2022-12-16T10:26:28.093Z,100247.58
2022-12-16T10:29:23.514Z,100253.61
2022-12-16T10:32:13.770Z,100259.62
2022-12-16T10:35:03.754Z,100257.89
2022-12-16T10:37:55.587Z,100266.48
2022-12-16T10:40:48.355Z,100270.77
2022-12-16T10:43:56.518Z,100278.52
2022-12-16T10:46:49.277Z,100278.50
2022-12-16T10:49:40.237Z,100291.37
2022-12-16T10:52:33.191Z,100291.38
2022-12-16T10:55:40.466Z,100305.13
2022-12-16T10:58:49.690Z,100314.55
2022-12-16T11:01:46.585Z,100321.45
2022-12-16T11:04:56.104Z,100312.88
2022-12-16T11:08:00.498Z,100318.85
2022-12-16T11:10:56.186Z,100325.73
2022-12-16T11:13:51.267Z,100342.03
2022-12-16T11:16:47.789Z,100341.16
2022-12-16T11:19:50.774Z,100348.87
2022-12-16T11:22:43.248Z,100353.16
2022-12-16T11:25:35.624Z,100347.98
2022-12-16T11:28:31.253Z,100364.27
2022-12-16T11:31:33.230Z,100371.16
2022-12-16T11:34:24.031Z,100372.81
2022-12-16T11:37:19.497Z,100389.98
2022-12-16T11:40:06.862Z,100383.98
2022-12-16T11:43:00.193Z,100391.70
2022-12-16T11:45:49.242Z,100398.58
2022-12-16T11:49:00.036Z,100407.19
2022-12-16T11:52:03.753Z,100414.03
2022-12-16T11:54:50.060Z,100419.99
2022-12-16T11:57:45.383Z,100429.43
2022-12-16T12:00:37.583Z,100436.25
2022-12-16T12:03:30.540Z,100443.14
2022-12-16T12:06:26.084Z,100446.55
2022-12-16T12:09:18.740Z,100447.43
2022-12-16T12:12:17.776Z,100449.98
2022-12-16T12:15:16.123Z,100455.99
2022-12-16T12:18:25.264Z,100450.13
2022-12-16T12:21:22.041Z,100455.17
2022-12-16T12:24:15.496Z,100468.07
2022-12-16T12:27:12.238Z,100466.32
2022-12-16T12:30:13.002Z,100461.16
2022-12-16T12:33:11.618Z,100464.63
2022-12-16T12:36:16.518Z,100483.50
2022-12-16T12:39:24.086Z,100479.09
2022-12-16T12:42:28.592Z,100483.33
2022-12-16T12:45:40.836Z,100476.45
2022-12-16T12:48:36.233Z,100491.11
2022-12-16T12:51:46.675Z,100497.06
2022-12-16T12:54:42.228Z,100492.70
2022-12-16T12:57:35.317Z,100502.26
2022-12-16T13:00:40.430Z,100500.41
2022-12-16T13:03:54.246Z,100499.43
2022-12-16T13:06:44.630Z,100501.98
2022-12-16T13:09:46.527Z,100507.09
2022-12-16T13:12:39.104Z,100517.52
2022-12-16T13:15:31.945Z,100528.66
2022-12-16T13:18:24.703Z,100540.59
2022-12-16T13:21:16.698Z,100525.11
2022-12-16T13:24:07.881Z,100537.21
2022-12-16T13:27:00.496Z,100535.29
2022-12-16T13:29:51.446Z,100534.58
2022-12-16T13:32:44.138Z,100540.48
2022-12-16T13:35:37.924Z,100546.47
2022-12-16T13:38:40.948Z,100556.84
2022-12-16T13:41:51.565Z,100566.19
2022-12-16T13:45:02.157Z,100576.48
2022-12-16T13:48:03.872Z,100585.01
2022-12-16T13:50:59.956Z,100585.82
2022-12-16T13:54:04.572Z,100586.59
2022-12-16T13:56:55.568Z,100593.48
2022-12-16T13:59:48.248Z,100600.52
2022-12-16T14:02:44.018Z,100596.02
2022-12-16T14:05:52.614Z,100599.48
2022-12-16T14:08:45.179Z,100607.29
2022-12-16T14:11:44.412Z,100614.02
2022-12-16T14:14:43.380Z,100615.73
2022-12-16T14:17:36.812Z,100616.65
2022-12-16T14:20:49.992Z,100620.88
2022-12-16T14:23:56.988Z,100627.77
2022-12-16T14:26:46.989Z,100624.31
2022-12-16T14:29:45.710Z,100629.53
2022-12-16T14:32:50.828Z,100630.34
2022-12-16T14:35:45.717Z,100626.98
2022-12-16T14:38:42.207Z,100632.98
2022-12-16T14:41:18.078Z,100637.49
2022-12-16T14:44:08.529Z,100632.22
2022-12-16T14:46:59.737Z,100630.50
2022-12-16T14:49:52.337Z,100639.02
2022-12-16T14:52:44.766Z,100641.63
2022-12-16T14:55:40.599Z,100645.09
2022-12-16T14:58:33.233Z,100650.23
2022-12-16T15:01:35.276Z,100651.06
2022-12-16T15:04:34.300Z,100653.72
2022-12-16T15:07:31.183Z,100644.24
2022-12-16T15:10:19.996Z,100647.67
2022-12-16T15:13:09.734Z,100656.29
2022-12-16T15:16:06.077Z,100655.39
2022-12-16T15:18:59.936Z,100661.45
2022-12-16T15:21:54.919Z,100682.94
2022-12-16T15:24:48.166Z,100665.78
2022-12-16T15:27:46.250Z,100662.30
2022-12-16T15:30:56.816Z,100678.65
2022-12-16T15:33:55.026Z,100677.73
2022-12-16T15:36:50.682Z,100674.30
2022-12-16T15:39:43.169Z,100687.25
2022-12-16T15:42:44.888Z,100685.53
2022-12-16T15:45:48.899Z,100688.14
2022-12-16T15:48:47.117Z,100674.30
2022-12-16T15:51:51.389Z,100675.97
2022-12-16T15:54:43.457Z,100682.01
2022-12-16T15:57:48.220Z,100688.02
2022-12-16T16:00:46.907Z,100685.44
2022-12-16T16:03:45.605Z,100678.59
2022-12-16T16:06:39.313Z,100674.34
2022-12-16T16:09:38.076Z,100684.67
2022-12-16T16:12:30.525Z,100683.80
2022-12-16T16:15:22.726Z,100691.55
2022-12-16T16:18:21.655Z,100681.27
2022-12-16T16:21:11.552Z,100684.77
2022-12-16T16:24:02.661Z,100675.36
2022-12-16T16:26:53.164Z,100674.52
2022-12-16T16:29:43.463Z,100670.23
2022-12-16T16:32:33.735Z,100662.52
2022-12-16T16:35:24.698Z,100664.23
2022-12-16T16:38:18.373Z,100671.97
2022-12-16T16:41:07.826Z,100671.14
2022-12-16T16:43:57.803Z,100673.75
2022-12-16T16:46:53.296Z,100678.04
2022-12-16T16:50:01.894Z,100690.07
2022-12-16T16:52:52.849Z,100679.75
2022-12-16T16:55:43.840Z,100680.67
2022-12-16T16:58:40.069Z,100683.25
2022-12-16T17:01:34.813Z,100686.70
2022-12-16T17:04:24.704Z,100680.72
2022-12-16T17:07:14.718Z,100673.85
2022-12-16T17:10:05.152Z,100672.98
2022-12-16T17:12:58.699Z,100678.13
2022-12-16T17:15:52.005Z,100683.27
2022-12-16T17:18:46.687Z,100679.86
2022-12-16T17:21:34.465Z,100678.98
2022-12-16T17:24:24.872Z,100679.00
2022-12-16T17:27:14.794Z,100676.45
2022-12-16T17:30:04.726Z,100678.19
2022-12-16T17:32:54.071Z,100677.36
2022-12-16T17:35:43.956Z,100677.38
2022-12-16T17:38:34.164Z,100676.52
2022-12-16T17:41:23.669Z,100666.27
2022-12-16T17:44:13.784Z,100680.00
2022-12-16T17:47:03.870Z,100671.42
2022-12-16T17:49:54.009Z,100680.87
2022-12-16T17:52:43.987Z,100677.48
2022-12-16T17:55:34.166Z,100680.97
2022-12-16T17:58:24.163Z,100682.70
2022-12-16T18:01:22.911Z,100691.31
2022-12-16T18:04:13.044Z,100697.35
2022-12-16T18:07:03.432Z,100697.35
2022-12-16T18:09:53.851Z,100708.48
2022-12-16T18:12:44.669Z,100705.09
2022-12-16T18:15:34.677Z,100709.38
2022-12-16T18:18:24.706Z,100708.50
2022-12-16T18:21:14.301Z,100714.56
2022-12-16T18:24:04.367Z,100718.80
2022-12-16T18:26:53.970Z,100726.52
2022-12-16T18:29:43.638Z,100718.79
2022-12-16T18:32:35.462Z,100717.94
2022-12-16T18:35:26.436Z,100725.64
2022-12-16T18:38:16.856Z,100722.21
2022-12-16T18:41:06.768Z,100725.66
2022-12-16T18:43:56.596Z,100723.92
2022-12-16T18:46:46.429Z,100726.52
2022-12-16T18:49:36.219Z,100722.25
2022-12-16T18:52:26.033Z,100719.67
2022-12-16T18:55:16.174Z,100710.23
2022-12-16T18:58:02.104Z,100715.37
2022-12-16T19:00:52.478Z,100708.50
2022-12-16T19:03:42.065Z,100707.62
2022-12-16T19:06:32.001Z,100718.78
2022-12-16T19:09:21.862Z,100718.77
2022-12-16T19:12:11.502Z,100729.92
2022-12-16T19:15:01.453Z,100729.08
2022-12-16T19:17:51.896Z,100731.66
2022-12-16T19:20:42.032Z,100734.22
2022-12-16T19:23:33.948Z,100741.97
2022-12-16T19:26:23.879Z,100753.16
2022-12-16T19:29:13.786Z,100749.73
2022-12-16T19:32:03.726Z,100762.63
2022-12-16T19:34:54.148Z,100778.97
2022-12-16T19:37:45.606Z,100781.48
2022-12-16T19:40:35.361Z,100790.88
2022-12-16T19:43:25.677Z,100789.19
2022-12-16T19:46:16.122Z,100784.88
2022-12-16T19:49:05.984Z,100796.03
2022-12-16T19:51:56.248Z,100814.03
2022-12-16T19:54:46.341Z,100814.05
2022-12-16T19:57:36.219Z,100820.02
2022-12-16T20:00:26.647Z,100832.09
2022-12-16T20:03:16.835Z,100829.46
2022-12-16T20:06:08.812Z,100834.55
2022-12-16T20:08:58.952Z,100828.53
2022-12-16T20:11:48.525Z,100820.72
2022-12-16T20:14:38.715Z,100823.30
2022-12-16T20:17:29.062Z,100828.41
2022-12-16T20:20:18.964Z,100824.09
2022-12-16T20:23:09.049Z,100823.19
2022-12-16T20:25:59.043Z,100824.90
2022-12-16T20:28:49.519Z,100846.32
2022-12-16T20:31:39.613Z,100848.95
2022-12-16T20:34:29.320Z,100835.15
2022-12-16T20:37:18.990Z,100831.70
2022-12-16T20:40:08.974Z,100826.49
2022-12-16T20:42:59.863Z,100822.15
2022-12-16T20:45:50.028Z,100807.56
2022-12-16T20:48:39.883Z,100802.39
2022-12-16T20:51:29.633Z,100795.52
2022-12-16T20:54:19.327Z,100795.53
2022-12-16T20:57:13.004Z,100797.29
2022-12-16T21:00:03.165Z,100796.48
2022-12-16T21:02:53.500Z,100796.47
2022-12-16T21:05:44.603Z,100799.05
2022-12-16T21:08:34.401Z,100797.38
2022-12-16T21:11:23.802Z,100807.71
2022-12-16T21:14:13.794Z,100797.38
2022-12-16T21:17:03.644Z,100787.95
2022-12-16T21:19:53.362Z,100788.81
2022-12-16T21:22:44.648Z,100785.39
2022-12-16T21:25:34.086Z,100784.55
2022-12-16T21:28:23.634Z,100782.00
2022-12-16T21:31:14.379Z,100778.58
2022-12-16T21:34:04.048Z,100776.00
2022-12-16T21:36:53.980Z,100776.90
2022-12-16T21:39:45.403Z,100779.50
2022-12-16T21:42:37.667Z,100774.37
2022-12-16T21:45:26.038Z,100769.20
2022-12-16T21:48:15.930Z,100773.47
2022-12-16T21:51:10.747Z,100770.88
2022-12-16T21:54:06.319Z,100777.77
2022-12-16T21:56:52.359Z,100782.09
2022-12-16T21:59:45.765Z,100772.64
2022-12-16T22:02:35.118Z,100765.79
2022-12-16T22:05:26.358Z,100776.97
2022-12-16T22:08:16.211Z,100775.21
2022-12-16T22:11:05.703Z,100760.64
2022-12-16T22:13:56.276Z,100764.09
2022-12-16T22:16:45.988Z,100767.53
2022-12-16T22:19:35.628Z,100758.95
2022-12-16T22:22:25.511Z,100758.95
2022-12-16T22:25:15.429Z,100767.57
2022-12-16T22:28:04.969Z,100759.87
2022-12-16T22:30:56.349Z,100760.71
2022-12-16T22:33:46.041Z,100771.84
2022-12-16T22:36:35.764Z,100765.00
2022-12-16T22:39:25.662Z,100758.99
2022-12-16T22:42:15.594Z,100771.88
2022-12-16T22:45:05.590Z,100771.80
2022-12-16T22:47:55.198Z,100772.68
2022-12-16T22:50:45.722Z,100772.66
2022-12-16T22:53:35.510Z,100768.39
2022-12-16T22:56:25.164Z,100781.26
2022-12-16T22:59:14.727Z,100770.96
2022-12-16T23:02:04.628Z,100775.27
2022-12-16T23:04:54.916Z,100779.55
2022-12-16T23:07:46.316Z,100779.55
2022-12-16T23:10:36.492Z,100778.73
2022-12-16T23:13:27.196Z,100779.52
2022-12-16T23:16:17.010Z,100783.83
2022-12-16T23:19:06.551Z,100779.55
2022-12-16T23:21:56.363Z,100778.69
2022-12-16T23:24:46.135Z,100784.69
2022-12-16T23:27:35.916Z,100782.09
2022-12-16T23:30:26.420Z,100780.34
2022-12-16T23:33:18.039Z,100784.64
2022-12-16T23:36:08.086Z,100788.08
2022-12-16T23:38:58.091Z,100776.90
2022-12-16T23:41:47.629Z,100774.30
2022-12-16T23:44:37.497Z,100769.18
2022-12-16T23:47:27.214Z,100769.18
2022-12-16T23:50:16.898Z,100772.61
2022-12-16T23:53:06.399Z,100765.72
2022-12-16T23:55:56.204Z,100769.97
2022-12-16T23:58:46.048Z,100757.94
